sensor_id;sensor_type;location;lat;lon;timestamp;P1;durP1;ratioP1;P2;durP2;ratioP2
20857;SDS011;10589;53.636;10.012;2023-09-08T03:45:29;8.90;;;7.85;;
20857;SDS011;10589;53.636;10.012;2023-09-08T03:47:54;8.20;;;7.23;;
20857;SDS011;10589;53.636;10.012;2023-09-08T03:50:20;9.50;;;8.40;;
20857;SDS011;10589;53.636;10.012;2023-09-08T03:52:46;9.77;;;8.07;;
20857;SDS011;10589;53.636;10.012;2023-09-08T03:55:11;8.47;;;7.50;;
20857;SDS011;10589;53.636;10.012;2023-09-08T03:57:37;8.53;;;7.70;;
20857;SDS011;10589;53.636;10.012;2023-09-08T04:00:02;9.50;;;8.45;;
20857;SDS011;10589;53.636;10.012;2023-09-08T04:02:31;11.63;;;8.73;;
20857;SDS011;10589;53.636;10.012;2023-09-08T04:04:56;9.03;;;8.13;;
20857;SDS011;10589;53.636;10.012;2023-09-08T04:07:22;9.13;;;8.10;;
20857;SDS011;10589;53.636;10.012;2023-09-08T04:09:48;8.30;;;7.50;;
20857;SDS011;10589;53.636;10.012;2023-09-08T04:12:13;9.70;;;8.70;;
20857;SDS011;10589;53.636;10.012;2023-09-08T04:14:39;9.73;;;8.70;;
20857;SDS011;10589;53.636;10.012;2023-09-08T04:17:04;14.45;;;8.77;;
20857;SDS011;10589;53.636;10.012;2023-09-08T04:19:30;10.43;;;8.87;;
20857;SDS011;10589;53.636;10.012;2023-09-08T04:21:55;10.47;;;8.50;;
20857;SDS011;10589;53.636;10.012;2023-09-08T04:24:21;12.00;;;9.38;;
20857;SDS011;10589;53.636;10.012;2023-09-08T04:26:46;12.50;;;8.70;;
20857;SDS011;10589;53.636;10.012;2023-09-08T04:29:12;11.07;;;8.35;;
20857;SDS011;10589;53.636;10.012;2023-09-08T04:31:37;10.18;;;9.02;;
20857;SDS011;10589;53.636;10.012;2023-09-08T04:34:03;9.40;;;8.40;;
20857;SDS011;10589;53.636;10.012;2023-09-08T04:36:28;9.07;;;8.18;;
20857;SDS011;10589;53.636;10.012;2023-09-08T04:38:55;9.98;;;8.88;;
20857;SDS011;10589;53.636;10.012;2023-09-08T04:41:21;9.18;;;8.15;;
20857;SDS011;10589;53.636;10.012;2023-09-08T04:43:47;9.88;;;8.75;;
20857;SDS011;10589;53.636;10.012;2023-09-08T04:46:12;10.97;;;8.00;;
20857;SDS011;10589;53.636;10.012;2023-09-08T04:48:38;9.20;;;8.07;;
20857;SDS011;10589;53.636;10.012;2023-09-08T04:51:03;10.60;;;8.55;;
20857;SDS011;10589;53.636;10.012;2023-09-08T04:53:29;11.47;;;7.87;;
20857;SDS011;10589;53.636;10.012;2023-09-08T04:55:55;9.43;;;8.18;;
20857;SDS011;10589;53.636;10.012;2023-09-08T04:58:20;11.43;;;8.57;;
20857;SDS011;10589;53.636;10.012;2023-09-08T05:00:46;9.02;;;7.50;;
20857;SDS011;10589;53.636;10.012;2023-09-08T05:03:12;10.13;;;8.90;;
20857;SDS011;10589;53.636;10.012;2023-09-08T05:05:37;9.73;;;8.73;;
20857;SDS011;10589;53.636;10.012;2023-09-08T05:08:04;10.10;;;8.40;;
20857;SDS011;10589;53.636;10.012;2023-09-08T05:10:29;11.93;;;8.50;;
20857;SDS011;10589;53.636;10.012;2023-09-08T05:12:55;13.95;;;8.90;;
20857;SDS011;10589;53.636;10.012;2023-09-08T05:15:21;11.48;;;9.00;;
20857;SDS011;10589;53.636;10.012;2023-09-08T05:17:46;12.57;;;8.60;;
20857;SDS011;10589;53.636;10.012;2023-09-08T05:20:12;15.53;;;8.87;;
20857;SDS011;10589;53.636;10.012;2023-09-08T05:22:38;15.43;;;9.57;;
20857;SDS011;10589;53.636;10.012;2023-09-08T05:25:04;9.82;;;8.77;;
20857;SDS011;10589;53.636;10.012;2023-09-08T05:27:30;11.45;;;8.68;;
20857;SDS011;10589;53.636;10.012;2023-09-08T05:29:56;9.88;;;7.90;;
20857;SDS011;10589;53.636;10.012;2023-09-08T05:32:22;9.98;;;8.27;;
20857;SDS011;10589;53.636;10.012;2023-09-08T05:34:47;11.93;;;8.63;;
20857;SDS011;10589;53.636;10.012;2023-09-08T05:37:13;11.10;;;8.43;;
20857;SDS011;10589;53.636;10.012;2023-09-08T05:39:38;9.50;;;8.52;;
20857;SDS011;10589;53.636;10.012;2023-09-08T05:42:04;9.00;;;8.10;;
20857;SDS011;10589;53.636;10.012;2023-09-08T05:44:29;9.38;;;8.35;;
20857;SDS011;10589;53.636;10.012;2023-09-08T05:46:55;8.75;;;7.50;;
20857;SDS011;10589;53.636;10.012;2023-09-08T05:49:20;11.23;;;8.02;;
20857;SDS011;10589;53.636;10.012;2023-09-08T05:51:46;11.40;;;7.80;;
20857;SDS011;10589;53.636;10.012;2023-09-08T05:54:12;12.25;;;8.48;;
20857;SDS011;10589;53.636;10.012;2023-09-08T05:56:38;12.15;;;8.27;;
20857;SDS011;10589;53.636;10.012;2023-09-08T05:59:03;8.55;;;7.65;;
20857;SDS011;10589;53.636;10.012;2023-09-08T06:01:30;10.40;;;8.05;;
20857;SDS011;10589;53.636;10.012;2023-09-08T06:03:56;12.45;;;8.43;;
20857;SDS011;10589;53.636;10.012;2023-09-08T06:06:21;10.13;;;7.63;;
20857;SDS011;10589;53.636;10.012;2023-09-08T06:08:47;12.02;;;8.20;;
20857;SDS011;10589;53.636;10.012;2023-09-08T06:11:13;10.68;;;8.10;;
20857;SDS011;10589;53.636;10.012;2023-09-08T06:13:39;10.73;;;7.63;;
20857;SDS011;10589;53.636;10.012;2023-09-08T06:16:04;12.50;;;7.53;;
20857;SDS011;10589;53.636;10.012;2023-09-08T06:18:30;10.60;;;8.07;;
20857;SDS011;10589;53.636;10.012;2023-09-08T06:20:56;8.63;;;7.50;;
20857;SDS011;10589;53.636;10.012;2023-09-08T06:23:21;10.65;;;7.45;;
20857;SDS011;10589;53.636;10.012;2023-09-08T06:25:48;9.07;;;8.10;;
20857;SDS011;10589;53.636;10.012;2023-09-08T06:28:14;12.80;;;8.13;;
20857;SDS011;10589;53.636;10.012;2023-09-08T06:30:39;12.30;;;7.68;;
20857;SDS011;10589;53.636;10.012;2023-09-08T06:33:07;9.30;;;7.43;;
20857;SDS011;10589;53.636;10.012;2023-09-08T06:35:33;11.70;;;7.70;;
20857;SDS011;10589;53.636;10.012;2023-09-08T06:37:59;10.48;;;7.75;;
20857;SDS011;10589;53.636;10.012;2023-09-08T06:40:25;9.65;;;7.30;;
20857;SDS011;10589;53.636;10.012;2023-09-08T06:42:50;9.32;;;8.25;;
20857;SDS011;10589;53.636;10.012;2023-09-08T06:45:16;10.57;;;8.30;;
20857;SDS011;10589;53.636;10.012;2023-09-08T06:47:42;9.13;;;7.40;;
20857;SDS011;10589;53.636;10.012;2023-09-08T06:50:09;9.80;;;7.60;;
20857;SDS011;10589;53.636;10.012;2023-09-08T06:52:35;8.27;;;7.45;;
20857;SDS011;10589;53.636;10.012;2023-09-08T06:55:00;10.70;;;7.28;;
20857;SDS011;10589;53.636;10.012;2023-09-08T06:57:26;8.07;;;7.15;;
20857;SDS011;10589;53.636;10.012;2023-09-08T06:59:52;9.95;;;7.30;;
20857;SDS011;10589;53.636;10.012;2023-09-08T07:02:17;12.90;;;8.48;;
20857;SDS011;10589;53.636;10.012;2023-09-08T07:04:43;9.45;;;7.78;;
20857;SDS011;10589;53.636;10.012;2023-09-08T07:07:08;17.23;;;7.10;;
20857;SDS011;10589;53.636;10.012;2023-09-08T07:09:35;8.50;;;7.50;;
20857;SDS011;10589;53.636;10.012;2023-09-08T07:12:02;11.13;;;7.65;;
20857;SDS011;10589;53.636;10.012;2023-09-08T07:14:28;10.32;;;7.28;;
20857;SDS011;10589;53.636;10.012;2023-09-08T07:16:54;10.90;;;6.93;;
20857;SDS011;10589;53.636;10.012;2023-09-08T07:19:19;7.43;;;6.70;;
20857;SDS011;10589;53.636;10.012;2023-09-08T07:21:45;9.05;;;6.82;;
20857;SDS011;10589;53.636;10.012;2023-09-08T07:24:10;7.53;;;6.63;;
20857;SDS011;10589;53.636;10.012;2023-09-08T07:26:37;7.45;;;6.43;;
20857;SDS011;10589;53.636;10.012;2023-09-08T07:29:02;9.95;;;7.00;;
20857;SDS011;10589;53.636;10.012;2023-09-08T07:31:28;13.70;;;6.55;;
20857;SDS011;10589;53.636;10.012;2023-09-08T07:33:53;9.02;;;6.88;;
20857;SDS011;10589;53.636;10.012;2023-09-08T07:36:19;7.43;;;6.72;;
20857;SDS011;10589;53.636;10.012;2023-09-08T07:38:45;7.68;;;6.53;;
20857;SDS011;10589;53.636;10.012;2023-09-08T07:41:10;13.60;;;7.05;;
20857;SDS011;10589;53.636;10.012;2023-09-08T07:43:36;7.10;;;6.40;;
20857;SDS011;10589;53.636;10.012;2023-09-08T07:46:05;9.23;;;6.85;;
20857;SDS011;10589;53.636;10.012;2023-09-08T07:48:31;10.32;;;7.32;;
20857;SDS011;10589;53.636;10.012;2023-09-08T07:50:57;10.35;;;6.35;;
20857;SDS011;10589;53.636;10.012;2023-09-08T07:53:25;7.40;;;6.65;;
20857;SDS011;10589;53.636;10.012;2023-09-08T07:55:51;7.55;;;6.22;;
20857;SDS011;10589;53.636;10.012;2023-09-08T07:58:16;8.77;;;6.88;;
20857;SDS011;10589;53.636;10.012;2023-09-08T08:00:42;7.13;;;6.43;;
20857;SDS011;10589;53.636;10.012;2023-09-08T08:03:07;8.95;;;6.03;;
20857;SDS011;10589;53.636;10.012;2023-09-08T08:05:34;9.32;;;6.65;;
20857;SDS011;10589;53.636;10.012;2023-09-08T08:07:59;7.30;;;6.00;;
20857;SDS011;10589;53.636;10.012;2023-09-08T08:10:25;7.85;;;6.53;;
20857;SDS011;10589;53.636;10.012;2023-09-08T08:12:51;9.02;;;6.80;;
20857;SDS011;10589;53.636;10.012;2023-09-08T08:15:18;7.32;;;5.85;;
20857;SDS011;10589;53.636;10.012;2023-09-08T08:17:46;6.75;;;5.90;;
20857;SDS011;10589;53.636;10.012;2023-09-08T08:20:11;9.43;;;5.93;;
20857;SDS011;10589;53.636;10.012;2023-09-08T08:22:42;9.05;;;5.90;;
20857;SDS011;10589;53.636;10.012;2023-09-08T08:25:09;6.88;;;5.45;;
20857;SDS011;10589;53.636;10.012;2023-09-08T08:27:34;8.73;;;5.93;;
20857;SDS011;10589;53.636;10.012;2023-09-08T08:30:00;7.30;;;6.13;;
20857;SDS011;10589;53.636;10.012;2023-09-08T08:32:26;7.60;;;6.03;;
20857;SDS011;10589;53.636;10.012;2023-09-08T08:34:52;8.95;;;5.53;;
20857;SDS011;10589;53.636;10.012;2023-09-08T08:37:18;7.10;;;6.07;;
20857;SDS011;10589;53.636;10.012;2023-09-08T08:39:43;11.10;;;6.13;;
20857;SDS011;10589;53.636;10.012;2023-09-08T08:42:09;12.45;;;5.70;;
20857;SDS011;10589;53.636;10.012;2023-09-08T08:44:36;6.32;;;5.68;;
20857;SDS011;10589;53.636;10.012;2023-09-08T08:47:03;9.95;;;6.10;;
20857;SDS011;10589;53.636;10.012;2023-09-08T08:49:32;5.95;;;5.35;;
20857;SDS011;10589;53.636;10.012;2023-09-08T08:51:59;11.38;;;6.32;;
20857;SDS011;10589;53.636;10.012;2023-09-08T08:54:25;8.57;;;4.95;;
20857;SDS011;10589;53.636;10.012;2023-09-08T08:56:51;7.15;;;5.22;;
20857;SDS011;10589;53.636;10.012;2023-09-08T08:59:17;6.20;;;4.97;;
20857;SDS011;10589;53.636;10.012;2023-09-08T09:01:43;6.30;;;5.40;;
20857;SDS011;10589;53.636;10.012;2023-09-08T09:04:10;9.60;;;5.68;;
20857;SDS011;10589;53.636;10.012;2023-09-08T09:06:36;7.35;;;5.60;;
20857;SDS011;10589;53.636;10.012;2023-09-08T09:09:02;7.85;;;5.70;;
20857;SDS011;10589;53.636;10.012;2023-09-08T09:11:29;10.20;;;5.45;;
20857;SDS011;10589;53.636;10.012;2023-09-08T09:13:56;6.05;;;5.20;;
20857;SDS011;10589;53.636;10.012;2023-09-08T09:16:24;8.52;;;5.55;;
20857;SDS011;10589;53.636;10.012;2023-09-08T09:18:57;7.47;;;5.25;;
20857;SDS011;10589;53.636;10.012;2023-09-08T09:21:25;10.23;;;5.43;;
20857;SDS011;10589;53.636;10.012;2023-09-08T09:24:16;8.52;;;4.80;;
20857;SDS011;10589;53.636;10.012;2023-09-08T09:26:42;5.43;;;4.93;;
20857;SDS011;10589;53.636;10.012;2023-09-08T09:29:11;6.25;;;5.20;;
20857;SDS011;10589;53.636;10.012;2023-09-08T09:31:46;8.07;;;5.13;;
20857;SDS011;10589;53.636;10.012;2023-09-08T09:34:19;5.65;;;4.88;;
20857;SDS011;10589;53.636;10.012;2023-09-08T09:36:46;5.70;;;4.63;;
20857;SDS011;10589;53.636;10.012;2023-09-08T09:39:21;5.53;;;5.03;;
20857;SDS011;10589;53.636;10.012;2023-09-08T09:41:54;6.90;;;5.28;;
20857;SDS011;10589;53.636;10.012;2023-09-08T09:44:21;8.48;;;5.35;;
20857;SDS011;10589;53.636;10.012;2023-09-08T09:46:47;6.85;;;5.10;;
20857;SDS011;10589;53.636;10.012;2023-09-08T09:49:14;10.50;;;4.93;;
20857;SDS011;10589;53.636;10.012;2023-09-08T09:51:43;5.63;;;5.00;;
20857;SDS011;10589;53.636;10.012;2023-09-08T09:54:10;5.10;;;4.60;;
20857;SDS011;10589;53.636;10.012;2023-09-08T09:56:37;7.05;;;4.93;;
20857;SDS011;10589;53.636;10.012;2023-09-08T09:59:03;7.65;;;5.13;;
20857;SDS011;10589;53.636;10.012;2023-09-08T10:01:31;6.65;;;5.20;;
20857;SDS011;10589;53.636;10.012;2023-09-08T10:03:57;8.52;;;5.13;;
20857;SDS011;10589;53.636;10.012;2023-09-08T10:06:24;11.93;;;5.03;;
20857;SDS011;10589;53.636;10.012;2023-09-08T10:08:51;8.70;;;5.18;;
20857;SDS011;10589;53.636;10.012;2023-09-08T10:11:17;6.63;;;5.20;;
20857;SDS011;10589;53.636;10.012;2023-09-08T10:13:46;5.88;;;4.85;;
20857;SDS011;10589;53.636;10.012;2023-09-08T10:16:15;5.05;;;4.03;;
20857;SDS011;10589;53.636;10.012;2023-09-08T10:18:45;8.43;;;4.80;;
20857;SDS011;10589;53.636;10.012;2023-09-08T10:21:12;6.95;;;4.55;;
20857;SDS011;10589;53.636;10.012;2023-09-08T10:23:44;8.63;;;4.90;;
20857;SDS011;10589;53.636;10.012;2023-09-08T10:26:19;7.00;;;4.22;;
20857;SDS011;10589;53.636;10.012;2023-09-08T10:28:51;9.40;;;4.68;;
20857;SDS011;10589;53.636;10.012;2023-09-08T10:31:20;6.00;;;4.97;;
20857;SDS011;10589;53.636;10.012;2023-09-08T10:33:48;7.00;;;5.03;;
20857;SDS011;10589;53.636;10.012;2023-09-08T10:36:14;8.00;;;4.35;;
20857;SDS011;10589;53.636;10.012;2023-09-08T10:38:40;6.60;;;5.07;;
20857;SDS011;10589;53.636;10.012;2023-09-08T10:43:44;5.60;;;4.50;;
20857;SDS011;10589;53.636;10.012;2023-09-08T10:46:14;5.03;;;4.45;;
20857;SDS011;10589;53.636;10.012;2023-09-08T10:48:46;5.55;;;4.70;;
20857;SDS011;10589;53.636;10.012;2023-09-08T10:51:16;7.75;;;4.82;;
20857;SDS011;10589;53.636;10.012;2023-09-08T10:53:42;5.63;;;4.15;;
20857;SDS011;10589;53.636;10.012;2023-09-08T10:56:11;7.68;;;4.45;;
20857;SDS011;10589;53.636;10.012;2023-09-08T10:58:37;7.20;;;4.32;;
20857;SDS011;10589;53.636;10.012;2023-09-08T11:01:03;9.02;;;4.05;;
20857;SDS011;10589;53.636;10.012;2023-09-08T11:06:08;6.57;;;4.32;;
20857;SDS011;10589;53.636;10.012;2023-09-08T11:08:36;7.28;;;3.97;;
20857;SDS011;10589;53.636;10.012;2023-09-08T11:11:12;6.25;;;4.38;;
20857;SDS011;10589;53.636;10.012;2023-09-08T11:13:38;10.43;;;4.30;;
20857;SDS011;10589;53.636;10.012;2023-09-08T11:16:10;5.50;;;3.72;;
20857;SDS011;10589;53.636;10.012;2023-09-08T11:18:36;7.32;;;4.50;;
20857;SDS011;10589;53.636;10.012;2023-09-08T11:21:02;6.05;;;4.38;;
20857;SDS011;10589;53.636;10.012;2023-09-08T11:23:32;5.57;;;4.15;;
20857;SDS011;10589;53.636;10.012;2023-09-08T11:25:58;4.97;;;4.00;;
20857;SDS011;10589;53.636;10.012;2023-09-08T11:28:26;4.80;;;4.28;;
20857;SDS011;10589;53.636;10.012;2023-09-08T11:30:53;4.85;;;4.05;;
20857;SDS011;10589;53.636;10.012;2023-09-08T11:33:20;7.20;;;3.83;;
20857;SDS011;10589;53.636;10.012;2023-09-08T11:35:50;4.78;;;3.92;;
20857;SDS011;10589;53.636;10.012;2023-09-08T11:38:26;6.90;;;4.00;;
20857;SDS011;10589;53.636;10.012;2023-09-08T11:40:56;5.65;;;3.72;;
20857;SDS011;10589;53.636;10.012;2023-09-08T11:43:23;9.55;;;3.72;;
20857;SDS011;10589;53.636;10.012;2023-09-08T11:45:50;8.65;;;3.92;;
20857;SDS011;10589;53.636;10.012;2023-09-08T11:48:16;6.32;;;4.05;;
20857;SDS011;10589;53.636;10.012;2023-09-08T11:50:42;5.90;;;4.10;;
20857;SDS011;10589;53.636;10.012;2023-09-08T11:53:08;4.75;;;3.72;;
20857;SDS011;10589;53.636;10.012;2023-09-08T11:55:34;4.75;;;3.83;;
20857;SDS011;10589;53.636;10.012;2023-09-08T11:58:03;4.68;;;3.40;;
20857;SDS011;10589;53.636;10.012;2023-09-08T12:00:29;4.90;;;3.95;;
20857;SDS011;10589;53.636;10.012;2023-09-08T12:02:55;9.43;;;4.10;;
20857;SDS011;10589;53.636;10.012;2023-09-08T12:05:33;7.30;;;4.25;;
20857;SDS011;10589;53.636;10.012;2023-09-08T12:07:59;6.03;;;3.97;;
20857;SDS011;10589;53.636;10.012;2023-09-08T12:10:29;6.28;;;4.30;;
20857;SDS011;10589;53.636;10.012;2023-09-08T12:12:55;5.43;;;3.83;;
20857;SDS011;10589;53.636;10.012;2023-09-08T12:15:31;13.20;;;3.80;;
20857;SDS011;10589;53.636;10.012;2023-09-08T12:17:58;5.70;;;4.28;;
20857;SDS011;10589;53.636;10.012;2023-09-08T12:20:28;6.38;;;4.00;;
20857;SDS011;10589;53.636;10.012;2023-09-08T12:22:57;4.53;;;3.67;;
20857;SDS011;10589;53.636;10.012;2023-09-08T12:25:27;4.00;;;3.53;;
20857;SDS011;10589;53.636;10.012;2023-09-08T12:27:59;7.93;;;4.15;;
20857;SDS011;10589;53.636;10.012;2023-09-08T12:30:25;6.35;;;4.03;;
20857;SDS011;10589;53.636;10.012;2023-09-08T12:33:00;8.35;;;4.05;;
20857;SDS011;10589;53.636;10.012;2023-09-08T12:35:27;9.25;;;3.95;;
20857;SDS011;10589;53.636;10.012;2023-09-08T12:38:00;4.60;;;3.58;;
20857;SDS011;10589;53.636;10.012;2023-09-08T12:40:29;6.85;;;3.97;;
20857;SDS011;10589;53.636;10.012;2023-09-08T12:42:56;4.60;;;4.20;;
20857;SDS011;10589;53.636;10.012;2023-09-08T12:45:25;5.38;;;3.30;;
20857;SDS011;10589;53.636;10.012;2023-09-08T12:47:51;6.78;;;3.63;;
20857;SDS011;10589;53.636;10.012;2023-09-08T12:50:19;4.05;;;3.65;;
20857;SDS011;10589;53.636;10.012;2023-09-08T12:52:45;5.93;;;3.67;;
20857;SDS011;10589;53.636;10.012;2023-09-08T12:55:11;4.93;;;3.83;;
20857;SDS011;10589;53.636;10.012;2023-09-08T12:57:37;6.90;;;3.70;;
20857;SDS011;10589;53.636;10.012;2023-09-08T13:00:03;5.75;;;3.90;;
20857;SDS011;10589;53.636;10.012;2023-09-08T13:02:33;5.07;;;3.38;;
20857;SDS011;10589;53.636;10.012;2023-09-08T13:04:59;5.45;;;3.10;;
20857;SDS011;10589;53.636;10.012;2023-09-08T13:07:25;6.05;;;3.58;;
20857;SDS011;10589;53.636;10.012;2023-09-08T13:09:51;5.82;;;3.30;;
20857;SDS011;10589;53.636;10.012;2023-09-08T13:12:17;4.35;;;3.67;;
20857;SDS011;10589;53.636;10.012;2023-09-08T13:14:43;4.57;;;3.60;;
20857;SDS011;10589;53.636;10.012;2023-09-08T13:17:09;5.80;;;3.25;;
20857;SDS011;10589;53.636;10.012;2023-09-08T13:19:35;8.32;;;3.30;;
20857;SDS011;10589;53.636;10.012;2023-09-08T13:22:02;5.88;;;3.47;;
20857;SDS011;10589;53.636;10.012;2023-09-08T13:24:29;6.35;;;3.50;;
20857;SDS011;10589;53.636;10.012;2023-09-08T13:26:56;5.28;;;3.13;;
20857;SDS011;10589;53.636;10.012;2023-09-08T13:29:21;4.55;;;3.53;;
20857;SDS011;10589;53.636;10.012;2023-09-08T13:31:47;5.47;;;3.20;;
20857;SDS011;10589;53.636;10.012;2023-09-08T13:34:13;5.22;;;3.20;;
20857;SDS011;10589;53.636;10.012;2023-09-08T13:36:39;4.30;;;2.95;;
20857;SDS011;10589;53.636;10.012;2023-09-08T13:39:04;5.63;;;3.15;;
20857;SDS011;10589;53.636;10.012;2023-09-08T13:44:22;4.28;;;2.90;;
20857;SDS011;10589;53.636;10.012;2023-09-08T13:46:49;3.72;;;2.70;;
20857;SDS011;10589;53.636;10.012;2023-09-08T13:49:15;3.58;;;2.95;;
20857;SDS011;10589;53.636;10.012;2023-09-08T13:51:42;3.33;;;2.67;;
20857;SDS011;10589;53.636;10.012;2023-09-08T13:54:08;2.85;;;2.63;;
20857;SDS011;10589;53.636;10.012;2023-09-08T13:56:34;3.75;;;2.60;;
20857;SDS011;10589;53.636;10.012;2023-09-08T13:59:00;3.30;;;2.72;;
20857;SDS011;10589;53.636;10.012;2023-09-08T14:01:26;3.28;;;2.72;;
20857;SDS011;10589;53.636;10.012;2023-09-08T14:03:54;5.97;;;2.78;;
20857;SDS011;10589;53.636;10.012;2023-09-08T14:06:20;4.00;;;2.60;;
20857;SDS011;10589;53.636;10.012;2023-09-08T14:08:46;3.55;;;2.90;;
20857;SDS011;10589;53.636;10.012;2023-09-08T14:11:12;5.30;;;2.70;;
20857;SDS011;10589;53.636;10.012;2023-09-08T14:13:37;5.70;;;3.03;;
20857;SDS011;10589;53.636;10.012;2023-09-08T14:16:03;5.63;;;2.88;;
20857;SDS011;10589;53.636;10.012;2023-09-08T14:18:29;5.25;;;3.00;;
20857;SDS011;10589;53.636;10.012;2023-09-08T14:20:55;4.75;;;2.88;;
20857;SDS011;10589;53.636;10.012;2023-09-08T14:23:21;4.45;;;3.30;;
20857;SDS011;10589;53.636;10.012;2023-09-08T14:25:47;6.18;;;3.00;;
20857;SDS011;10589;53.636;10.012;2023-09-08T14:28:12;3.55;;;2.92;;
20857;SDS011;10589;53.636;10.012;2023-09-08T14:30:38;5.13;;;2.97;;
20857;SDS011;10589;53.636;10.012;2023-09-08T14:33:05;4.07;;;3.08;;
20857;SDS011;10589;53.636;10.012;2023-09-08T14:35:31;5.68;;;3.33;;
20857;SDS011;10589;53.636;10.012;2023-09-08T14:37:57;4.75;;;3.30;;
20857;SDS011;10589;53.636;10.012;2023-09-08T14:40:23;4.22;;;3.53;;
20857;SDS011;10589;53.636;10.012;2023-09-08T14:42:48;5.28;;;3.22;;
20857;SDS011;10589;53.636;10.012;2023-09-08T14:45:14;4.47;;;3.28;;
20857;SDS011;10589;53.636;10.012;2023-09-08T14:47:39;5.28;;;2.90;;
20857;SDS011;10589;53.636;10.012;2023-09-08T14:50:05;3.88;;;3.25;;
20857;SDS011;10589;53.636;10.012;2023-09-08T14:52:31;3.75;;;3.45;;
20857;SDS011;10589;53.636;10.012;2023-09-08T14:54:57;5.90;;;3.08;;
20857;SDS011;10589;53.636;10.012;2023-09-08T14:57:22;3.65;;;2.97;;
20857;SDS011;10589;53.636;10.012;2023-09-08T14:59:48;4.63;;;3.42;;
20857;SDS011;10589;53.636;10.012;2023-09-08T15:02:14;4.15;;;3.53;;
20857;SDS011;10589;53.636;10.012;2023-09-08T15:04:39;3.70;;;3.25;;
20857;SDS011;10589;53.636;10.012;2023-09-08T15:07:05;6.30;;;3.35;;
20857;SDS011;10589;53.636;10.012;2023-09-08T15:09:31;7.43;;;3.63;;
20857;SDS011;10589;53.636;10.012;2023-09-08T15:11:58;3.38;;;3.08;;
20857;SDS011;10589;53.636;10.012;2023-09-08T15:14:24;4.68;;;3.75;;
20857;SDS011;10589;53.636;10.012;2023-09-08T15:16:49;3.95;;;3.53;;
20857;SDS011;10589;53.636;10.012;2023-09-08T15:19:15;7.13;;;3.30;;
20857;SDS011;10589;53.636;10.012;2023-09-08T15:21:40;5.03;;;3.42;;
20857;SDS011;10589;53.636;10.012;2023-09-08T15:24:06;3.80;;;3.40;;
20857;SDS011;10589;53.636;10.012;2023-09-08T15:26:32;5.20;;;3.50;;
20857;SDS011;10589;53.636;10.012;2023-09-08T15:28:57;3.80;;;3.42;;
20857;SDS011;10589;53.636;10.012;2023-09-08T15:31:24;9.95;;;4.10;;
20857;SDS011;10589;53.636;10.012;2023-09-08T15:33:50;5.18;;;3.83;;
20857;SDS011;10589;53.636;10.012;2023-09-08T15:36:16;6.75;;;3.45;;
20857;SDS011;10589;53.636;10.012;2023-09-08T15:38:42;5.00;;;3.60;;
20857;SDS011;10589;53.636;10.012;2023-09-08T15:43:38;4.35;;;3.45;;
20857;SDS011;10589;53.636;10.012;2023-09-08T15:46:05;5.30;;;3.33;;
20857;SDS011;10589;53.636;10.012;2023-09-08T15:48:33;8.07;;;3.58;;
20857;SDS011;10589;53.636;10.012;2023-09-08T15:50:59;5.35;;;3.65;;
20857;SDS011;10589;53.636;10.012;2023-09-08T15:53:24;9.80;;;3.70;;
20857;SDS011;10589;53.636;10.012;2023-09-08T15:55:50;4.40;;;3.40;;
20857;SDS011;10589;53.636;10.012;2023-09-08T15:58:15;6.85;;;3.47;;
20857;SDS011;10589;53.636;10.012;2023-09-08T16:00:41;5.70;;;3.30;;
20857;SDS011;10589;53.636;10.012;2023-09-08T16:03:06;4.00;;;3.50;;
20857;SDS011;10589;53.636;10.012;2023-09-08T16:05:32;5.90;;;3.70;;
20857;SDS011;10589;53.636;10.012;2023-09-08T16:07:57;4.97;;;3.83;;
20857;SDS011;10589;53.636;10.012;2023-09-08T16:10:23;5.15;;;3.10;;
20857;SDS011;10589;53.636;10.012;2023-09-08T16:12:48;4.20;;;3.40;;
20857;SDS011;10589;53.636;10.012;2023-09-08T16:15:14;5.72;;;3.47;;
20857;SDS011;10589;53.636;10.012;2023-09-08T16:17:40;4.97;;;3.25;;
20857;SDS011;10589;53.636;10.012;2023-09-08T16:20:06;4.38;;;3.50;;
20857;SDS011;10589;53.636;10.012;2023-09-08T16:22:32;4.88;;;3.30;;
20857;SDS011;10589;53.636;10.012;2023-09-08T16:24:58;8.25;;;3.35;;
20857;SDS011;10589;53.636;10.012;2023-09-08T16:27:23;5.15;;;3.28;;
20857;SDS011;10589;53.636;10.012;2023-09-08T16:29:49;5.43;;;3.17;;
20857;SDS011;10589;53.636;10.012;2023-09-08T16:32:14;3.63;;;3.22;;
20857;SDS011;10589;53.636;10.012;2023-09-08T16:34:40;4.80;;;3.17;;
20857;SDS011;10589;53.636;10.012;2023-09-08T16:37:05;5.63;;;3.40;;
20857;SDS011;10589;53.636;10.012;2023-09-08T16:39:31;4.07;;;3.28;;
20857;SDS011;10589;53.636;10.012;2023-09-08T16:41:57;4.07;;;3.45;;
20857;SDS011;10589;53.636;10.012;2023-09-08T16:44:22;3.15;;;2.85;;
20857;SDS011;10589;53.636;10.012;2023-09-08T16:46:48;4.80;;;3.25;;
20857;SDS011;10589;53.636;10.012;2023-09-08T16:49:14;4.57;;;3.88;;
20857;SDS011;10589;53.636;10.012;2023-09-08T16:51:43;3.90;;;3.20;;
20857;SDS011;10589;53.636;10.012;2023-09-08T16:54:08;5.55;;;3.25;;
20857;SDS011;10589;53.636;10.012;2023-09-08T16:56:34;3.97;;;3.30;;
20857;SDS011;10589;53.636;10.012;2023-09-08T16:59:00;5.30;;;3.72;;
20857;SDS011;10589;53.636;10.012;2023-09-08T17:01:25;7.57;;;3.58;;
20857;SDS011;10589;53.636;10.012;2023-09-08T17:03:51;5.93;;;3.38;;
20857;SDS011;10589;53.636;10.012;2023-09-08T17:06:16;7.65;;;3.90;;
20857;SDS011;10589;53.636;10.012;2023-09-08T17:08:42;4.50;;;3.47;;
20857;SDS011;10589;53.636;10.012;2023-09-08T17:11:08;3.88;;;3.42;;
20857;SDS011;10589;53.636;10.012;2023-09-08T17:13:35;3.75;;;3.45;;
20857;SDS011;10589;53.636;10.012;2023-09-08T17:16:01;5.85;;;4.07;;
20857;SDS011;10589;53.636;10.012;2023-09-08T17:18:27;3.60;;;3.28;;
20857;SDS011;10589;53.636;10.012;2023-09-08T17:20:52;4.75;;;3.60;;
20857;SDS011;10589;53.636;10.012;2023-09-08T17:23:19;4.13;;;3.63;;
20857;SDS011;10589;53.636;10.012;2023-09-08T17:25:47;4.40;;;4.00;;
20857;SDS011;10589;53.636;10.012;2023-09-08T17:28:12;6.13;;;4.10;;
20857;SDS011;10589;53.636;10.012;2023-09-08T17:30:38;8.05;;;3.60;;
20857;SDS011;10589;53.636;10.012;2023-09-08T17:33:03;5.70;;;3.88;;
20857;SDS011;10589;53.636;10.012;2023-09-08T17:35:29;7.32;;;3.67;;
20857;SDS011;10589;53.636;10.012;2023-09-08T17:37:55;5.97;;;4.03;;
20857;SDS011;10589;53.636;10.012;2023-09-08T17:40:20;6.30;;;4.57;;
20857;SDS011;10589;53.636;10.012;2023-09-08T17:42:46;5.68;;;4.88;;
20857;SDS011;10589;53.636;10.012;2023-09-08T17:45:11;7.95;;;4.60;;
20857;SDS011;10589;53.636;10.012;2023-09-08T17:47:37;5.85;;;4.28;;
20857;SDS011;10589;53.636;10.012;2023-09-08T17:50:03;5.25;;;4.75;;
20857;SDS011;10589;53.636;10.012;2023-09-08T17:52:29;5.82;;;4.75;;
20857;SDS011;10589;53.636;10.012;2023-09-08T17:54:55;5.20;;;4.70;;
20857;SDS011;10589;53.636;10.012;2023-09-08T17:57:21;7.68;;;5.45;;
20857;SDS011;10589;53.636;10.012;2023-09-08T17:59:47;6.68;;;5.40;;
20857;SDS011;10589;53.636;10.012;2023-09-08T18:02:13;5.85;;;5.35;;
20857;SDS011;10589;53.636;10.012;2023-09-08T18:04:40;7.55;;;5.75;;
20857;SDS011;10589;53.636;10.012;2023-09-08T18:07:06;7.20;;;6.18;;
20857;SDS011;10589;53.636;10.012;2023-09-08T18:09:32;6.90;;;6.20;;
20857;SDS011;10589;53.636;10.012;2023-09-08T18:11:58;8.32;;;7.13;;
20857;SDS011;10589;53.636;10.012;2023-09-08T18:14:24;7.55;;;6.07;;
20857;SDS011;10589;53.636;10.012;2023-09-08T18:16:49;7.38;;;5.90;;
20857;SDS011;10589;53.636;10.012;2023-09-08T18:19:17;6.30;;;5.47;;
20857;SDS011;10589;53.636;10.012;2023-09-08T18:21:43;6.03;;;5.18;;
20857;SDS011;10589;53.636;10.012;2023-09-08T18:24:09;6.57;;;5.18;;